createdAt,value
2023-04-21T00:01:55.130Z,99.90
2023-04-21T00:04:58.382Z,99.90
2023-04-21T00:08:02.548Z,99.90
2023-04-21T00:11:05.454Z,99.90
2023-04-21T00:14:08.205Z,99.90
2023-04-21T00:17:10.968Z,99.90
2023-04-21T00:20:14.484Z,99.90
2023-04-21T00:23:18.606Z,99.90
2023-04-21T00:26:21.396Z,99.90
2023-04-21T00:29:24.124Z,99.90
2023-04-21T00:32:26.943Z,99.90
2023-04-21T00:35:30.809Z,99.90
2023-04-21T00:38:34.953Z,99.90
2023-04-21T00:41:39.813Z,99.90
2023-04-21T00:44:42.560Z,99.90
2023-04-21T00:47:45.393Z,99.90
2023-04-21T00:50:48.196Z,99.90
2023-04-21T00:53:52.599Z,99.90
2023-04-21T00:56:58.387Z,99.90
2023-04-21T01:00:01.189Z,99.90
2023-04-21T01:03:04.265Z,99.90
2023-04-21T01:06:07.964Z,99.90
2023-04-21T01:09:12.640Z,99.90
2023-04-21T01:12:15.458Z,99.90
2023-04-21T01:15:19.077Z,99.90
2023-04-21T01:18:22.046Z,99.90
2023-04-21T01:21:24.951Z,99.90
2023-04-21T01:24:39.120Z,99.90
2023-04-21T01:27:41.964Z,99.90
2023-04-21T01:30:44.743Z,99.90
2023-04-21T01:33:47.533Z,99.90
2023-04-21T01:36:50.465Z,99.90
2023-04-21T01:39:57.857Z,99.90
2023-04-21T01:43:00.644Z,99.90
2023-04-21T01:46:03.655Z,99.90
2023-04-21T01:49:06.452Z,99.90
2023-04-21T01:52:10.264Z,99.90
2023-04-21T01:55:14.766Z,99.90
2023-04-21T01:58:17.490Z,99.90
2023-04-21T02:01:20.247Z,99.90
2023-04-21T02:04:23.251Z,99.90
2023-04-21T02:07:26.238Z,99.90
2023-04-21T02:10:30.810Z,99.90
2023-04-21T02:13:33.589Z,99.90
2023-04-21T02:16:36.404Z,99.90
2023-04-21T02:19:39.272Z,99.90
2023-04-21T02:22:42.126Z,99.90
2023-04-21T02:25:46.250Z,99.90
2023-04-21T02:28:49.638Z,99.90
2023-04-21T02:32:01.199Z,99.90
2023-04-21T02:35:08.741Z,99.90
2023-04-21T02:38:11.488Z,99.90
2023-04-21T02:41:15.638Z,99.90
2023-04-21T02:44:18.459Z,99.90
2023-04-21T02:47:21.391Z,99.90
2023-04-21T02:50:24.338Z,99.90
2023-04-21T02:53:27.245Z,99.90
2023-04-21T02:56:31.817Z,99.90
2023-04-21T02:59:34.623Z,99.90
2023-04-21T03:02:37.535Z,99.90
2023-04-21T03:05:40.387Z,99.90
2023-04-21T03:08:43.245Z,99.90
2023-04-21T03:11:47.349Z,99.90
2023-04-21T03:14:50.130Z,99.90
2023-04-21T03:17:52.929Z,99.90
2023-04-21T03:21:01.426Z,99.90
2023-04-21T03:24:04.454Z,99.90
2023-04-21T03:27:10.450Z,99.90
2023-04-21T03:30:14.233Z,99.90
2023-04-21T03:33:17.032Z,99.90
2023-04-21T03:36:19.839Z,99.90
2023-04-21T03:39:22.864Z,99.90
2023-04-21T03:42:27.118Z,99.90
2023-04-21T03:45:29.878Z,99.90
2023-04-21T03:48:33.136Z,99.90
2023-04-21T03:51:36.021Z,99.90
2023-04-21T03:54:38.793Z,99.90
2023-04-21T03:57:43.803Z,99.90
2023-04-21T04:00:46.562Z,99.90
2023-04-21T04:03:49.448Z,99.90
2023-04-21T04:06:52.464Z,99.90
2023-04-21T04:09:55.322Z,99.90
2023-04-21T04:12:59.437Z,99.90
2023-04-21T04:16:02.267Z,99.90
2023-04-21T04:19:05.107Z,99.90
2023-04-21T04:22:07.970Z,99.90
2023-04-21T04:25:12.759Z,99.90
2023-04-21T04:28:16.864Z,99.90
2023-04-21T04:31:19.746Z,99.90
2023-04-21T04:34:24.453Z,99.90
2023-04-21T04:37:27.268Z,99.90
2023-04-21T04:40:30.409Z,99.90
2023-04-21T04:43:36.893Z,99.90
2023-04-21T04:46:40.752Z,99.90
2023-04-21T04:49:43.578Z,99.90
2023-04-21T04:52:47.425Z,99.90
2023-04-21T04:55:50.264Z,99.90
2023-04-21T04:58:54.363Z,99.90
2023-04-21T05:01:57.301Z,99.90
2023-04-21T05:05:00.223Z,99.90
2023-04-21T05:08:03.102Z,99.90
2023-04-21T05:11:06.744Z,99.90
2023-04-21T05:14:10.862Z,99.90
2023-04-21T05:17:13.624Z,99.90
2023-04-21T05:20:17.176Z,99.90
2023-04-21T05:23:20.090Z,99.90
2023-04-21T05:26:22.920Z,99.90
2023-04-21T05:29:27.041Z,99.90
2023-04-21T05:32:30.319Z,99.90
2023-04-21T05:35:33.888Z,99.90
2023-04-21T05:38:38.232Z,99.90
2023-04-21T05:41:40.994Z,99.90
2023-04-21T05:44:45.402Z,99.90
2023-04-21T05:47:48.289Z,99.90
2023-04-21T05:50:51.107Z,99.90
2023-04-21T05:53:53.883Z,99.90
2023-04-21T05:56:56.953Z,99.90
2023-04-21T06:00:01.077Z,99.90
2023-04-21T06:03:04.439Z,99.90
2023-04-21T06:06:09.125Z,99.90
2023-04-21T06:09:11.908Z,99.90
2023-04-21T06:12:14.666Z,99.90
2023-04-21T06:15:18.897Z,99.90
2023-04-21T06:18:21.676Z,99.90
2023-04-21T06:21:24.462Z,99.90
2023-04-21T06:24:27.226Z,99.90
2023-04-21T06:27:29.992Z,99.90
2023-04-21T06:30:34.179Z,99.90
2023-04-21T06:33:37.029Z,99.90
2023-04-21T06:36:39.798Z,99.90
2023-04-21T06:39:42.546Z,99.90
2023-04-21T06:42:45.456Z,99.90
2023-04-21T06:45:49.597Z,99.90
2023-04-21T06:48:52.355Z,99.90
2023-04-21T06:51:55.562Z,99.90
2023-04-21T06:54:58.365Z,99.90
2023-04-21T06:58:01.215Z,99.90
2023-04-21T07:01:05.417Z,99.90
2023-04-21T07:04:08.372Z,99.90
2023-04-21T07:07:11.283Z,99.90
2023-04-21T07:10:19.056Z,99.90
2023-04-21T07:13:22.068Z,99.90
2023-04-21T07:16:26.255Z,99.90
2023-04-21T07:19:29.058Z,99.90
2023-04-21T07:22:31.870Z,99.90
2023-04-21T07:25:34.662Z,99.90
2023-04-21T07:28:38.107Z,99.90
2023-04-21T07:31:42.375Z,99.90
2023-04-21T07:34:47.038Z,99.90
2023-04-21T07:37:49.820Z,99.90
2023-04-21T07:40:52.698Z,99.90
2023-04-21T07:43:55.514Z,99.90
2023-04-21T07:46:59.613Z,99.90
2023-04-21T07:50:02.618Z,99.90
2023-04-21T07:53:05.460Z,99.90
2023-04-21T07:56:08.752Z,99.90
2023-04-21T07:59:11.530Z,99.90
2023-04-21T08:02:16.063Z,99.90
2023-04-21T08:05:19.224Z,99.90
2023-04-21T08:08:22.345Z,99.90
2023-04-21T08:11:25.108Z,99.90
2023-04-21T08:14:28.349Z,99.90
2023-04-21T08:17:32.677Z,99.90
2023-04-21T08:20:35.750Z,99.90
2023-04-21T08:23:38.621Z,99.80
2023-04-21T08:26:41.484Z,99.90
2023-04-21T08:29:44.410Z,99.90
2023-04-21T08:32:48.553Z,99.90
2023-04-21T08:36:02.301Z,99.00
2023-04-21T08:39:08.653Z,99.50
2023-04-21T08:42:11.464Z,98.60
2023-04-21T08:45:14.293Z,97.80
2023-04-21T08:48:21.612Z,97.80
2023-04-21T08:51:25.270Z,98.10
2023-04-21T08:54:30.001Z,99.10
2023-04-21T08:57:32.963Z,98.90
2023-04-21T09:00:35.789Z,98.40
2023-04-21T09:03:40.065Z,98.50
2023-04-21T09:06:44.077Z,98.30
2023-04-21T09:09:53.634Z,97.70
2023-04-21T09:12:56.445Z,98.80
2023-04-21T09:16:00.059Z,98.30
2023-04-21T09:19:04.601Z,97.10
2023-04-21T09:22:07.645Z,96.50
2023-04-21T09:25:10.851Z,96.90
2023-04-21T09:28:15.373Z,96.40
2023-04-21T09:31:20.317Z,97.10
2023-04-21T09:34:25.945Z,97.40
2023-04-21T09:37:33.537Z,97.60
2023-04-21T09:40:36.370Z,97.40
2023-04-21T09:43:39.163Z,96.80
2023-04-21T09:46:44.762Z,97.00
2023-04-21T09:49:52.744Z,96.70
2023-04-21T09:52:57.377Z,96.70
2023-04-21T09:56:00.762Z,98.00
2023-04-21T09:59:08.223Z,96.50
2023-04-21T10:02:13.410Z,95.90
2023-04-21T10:05:17.959Z,96.20
2023-04-21T10:08:21.847Z,95.70
2023-04-21T10:11:25.048Z,94.80
2023-04-21T10:14:27.892Z,95.30
2023-04-21T10:17:31.684Z,96.40
2023-04-21T10:20:52.296Z,95.40
2023-04-21T10:23:55.280Z,94.50
2023-04-21T10:27:01.642Z,93.80
2023-04-21T10:30:20.096Z,94.20
2023-04-21T10:33:24.982Z,94.20
2023-04-21T10:36:29.109Z,93.90
2023-04-21T10:39:35.817Z,92.90
2023-04-21T10:42:38.678Z,90.10
2023-04-21T10:45:41.537Z,90.80
2023-04-21T10:48:53.350Z,91.20
2023-04-21T10:52:12.237Z,89.80
2023-04-21T10:55:16.117Z,89.80
2023-04-21T10:58:19.482Z,89.20
2023-04-21T11:01:22.378Z,90.70
2023-04-21T11:04:25.875Z,90.00
2023-04-21T11:07:31.404Z,91.30
2023-04-21T11:10:44.065Z,91.10
2023-04-21T11:13:47.676Z,91.00
2023-04-21T11:16:51.110Z,91.10
2023-04-21T11:19:55.323Z,89.50
2023-04-21T11:22:59.448Z,90.80
2023-04-21T11:26:02.265Z,90.20
2023-04-21T11:29:06.362Z,89.60
2023-04-21T11:32:10.081Z,87.30
2023-04-21T11:35:12.884Z,87.50
2023-04-21T11:38:18.612Z,89.00
2023-04-21T11:41:25.074Z,87.30
2023-04-21T11:44:36.030Z,85.00
2023-04-21T11:47:39.976Z,84.30
2023-04-21T11:50:48.507Z,86.50
2023-04-21T11:53:52.771Z,84.00
2023-04-21T11:56:55.864Z,86.90
2023-04-21T12:00:00.423Z,84.80
2023-04-21T12:03:03.308Z,85.10
2023-04-21T12:06:07.489Z,84.20
2023-04-21T12:09:18.460Z,82.10
2023-04-21T12:12:22.944Z,82.20
2023-04-21T12:15:25.899Z,81.70
2023-04-21T12:18:29.188Z,81.80
2023-04-21T12:21:31.972Z,79.00
2023-04-21T12:24:36.834Z,80.10
2023-04-21T12:27:48.316Z,79.90
2023-04-21T12:30:51.090Z,78.00
2023-04-21T12:33:53.940Z,78.60
2023-04-21T12:36:56.949Z,77.30
2023-04-21T12:40:01.081Z,76.80
2023-04-21T12:43:03.857Z,77.90
2023-04-21T12:46:06.679Z,78.10
2023-04-21T12:49:11.063Z,77.60
2023-04-21T12:52:13.916Z,75.50
2023-04-21T12:55:18.309Z,74.40
2023-04-21T12:58:21.407Z,75.30
2023-04-21T13:01:24.270Z,73.70
2023-04-21T13:04:27.361Z,73.70
2023-04-21T13:07:31.309Z,69.40
2023-04-21T13:10:35.484Z,70.60
2023-04-21T13:13:39.005Z,69.50
2023-04-21T13:16:42.015Z,65.40
2023-04-21T13:19:44.971Z,66.40
2023-04-21T13:22:47.781Z,59.80
2023-04-21T13:25:52.779Z,61.70
2023-04-21T13:28:55.680Z,63.90
2023-04-21T13:31:58.484Z,65.30
2023-04-21T13:35:01.255Z,60.40
2023-04-21T13:38:04.049Z,61.20
2023-04-21T13:41:08.271Z,61.90
2023-04-21T13:44:11.074Z,62.40
2023-04-21T13:47:13.998Z,59.60
2023-04-21T13:50:16.784Z,59.20
2023-04-21T13:53:21.330Z,61.40
2023-04-21T13:56:25.848Z,59.60
2023-04-21T13:59:28.949Z,60.10
2023-04-21T14:02:31.944Z,58.60
2023-04-21T14:05:35.247Z,60.00
2023-04-21T14:08:38.096Z,60.80
2023-04-21T14:11:42.235Z,59.80
2023-04-21T14:14:45.134Z,62.00
2023-04-21T14:17:47.963Z,60.90
2023-04-21T14:20:50.871Z,61.20
2023-04-21T14:23:53.815Z,60.10
2023-04-21T14:26:58.056Z,62.30
2023-04-21T14:30:00.857Z,60.50
2023-04-21T14:33:03.766Z,61.10
2023-04-21T14:36:07.118Z,58.30
2023-04-21T14:39:10.189Z,61.60
2023-04-21T14:42:14.395Z,60.10
2023-04-21T14:45:17.261Z,60.60
2023-04-21T14:48:20.093Z,59.90
2023-04-21T14:51:22.907Z,60.60
2023-04-21T14:54:25.880Z,60.30
2023-04-21T14:57:30.022Z,61.10
2023-04-21T15:00:34.612Z,59.20
2023-04-21T15:03:38.178Z,60.30
2023-04-21T15:06:41.109Z,59.60
2023-04-21T15:09:45.758Z,58.90
2023-04-21T15:12:49.962Z,59.10
2023-04-21T15:15:52.824Z,58.80
2023-04-21T15:18:55.936Z,58.80
2023-04-21T15:21:59.003Z,58.00
2023-04-21T15:25:01.855Z,57.40
2023-04-21T15:28:07.135Z,57.10
2023-04-21T15:31:10.374Z,57.50
2023-04-21T15:34:13.277Z,58.40
2023-04-21T15:37:17.483Z,58.40
2023-04-21T15:40:20.337Z,57.80
2023-04-21T15:43:25.836Z,58.00
2023-04-21T15:46:28.875Z,58.30
2023-04-21T15:49:31.743Z,57.60
2023-04-21T15:52:37.077Z,57.90
2023-04-21T15:55:39.916Z,57.80
2023-04-21T15:58:44.261Z,57.40
2023-04-21T16:01:47.215Z,58.70
2023-04-21T16:04:50.205Z,56.80
2023-04-21T16:07:53.636Z,58.30
2023-04-21T16:10:57.162Z,57.20
2023-04-21T16:14:01.360Z,59.10
2023-04-21T16:17:04.684Z,58.20
2023-04-21T16:20:08.806Z,57.90
2023-04-21T16:23:11.649Z,57.90
2023-04-21T16:26:14.471Z,58.40
2023-04-21T16:29:19.732Z,57.60
2023-04-21T16:32:22.608Z,58.50
2023-04-21T16:35:25.584Z,58.20
2023-04-21T16:38:28.386Z,57.90
2023-04-21T16:41:31.300Z,58.40
2023-04-21T16:44:35.871Z,57.40
2023-04-21T16:47:42.101Z,58.20
2023-04-21T16:50:45.595Z,58.50
2023-04-21T16:53:48.403Z,58.40
2023-04-21T16:56:51.319Z,57.40
2023-04-21T16:59:55.549Z,57.90
2023-04-21T17:02:58.690Z,58.70
2023-04-21T17:06:04.502Z,57.50
2023-04-21T17:09:08.013Z,58.00
2023-04-21T17:12:10.833Z,58.80
2023-04-21T17:15:15.339Z,59.40
2023-04-21T17:18:18.359Z,59.80
2023-04-21T17:21:21.290Z,60.20
2023-04-21T17:24:24.177Z,62.40
2023-04-21T17:27:27.054Z,60.80
2023-04-21T17:30:31.302Z,59.40
2023-04-21T17:33:34.085Z,60.30
2023-04-21T17:36:39.368Z,60.10
2023-04-21T17:39:42.246Z,61.20
2023-04-21T17:42:45.244Z,60.40
2023-04-21T17:45:49.520Z,62.30
2023-04-21T17:48:52.322Z,62.60
2023-04-21T17:51:55.094Z,64.90
2023-04-21T17:54:57.892Z,64.30
2023-04-21T17:58:00.705Z,63.40
2023-04-21T18:01:04.860Z,64.30
2023-04-21T18:04:07.893Z,64.80
2023-04-21T18:07:10.986Z,65.10
2023-04-21T18:10:13.964Z,65.40
2023-04-21T18:13:16.817Z,65.90
2023-04-21T18:16:20.989Z,67.30
2023-04-21T18:19:24.276Z,67.60
2023-04-21T18:22:27.358Z,68.20
2023-04-21T18:25:41.297Z,69.60
2023-04-21T18:28:45.126Z,70.60
2023-04-21T18:31:49.420Z,70.70
2023-04-21T18:34:52.251Z,70.80
2023-04-21T18:37:55.193Z,72.10
2023-04-21T18:40:58.031Z,72.60
2023-04-21T18:44:00.801Z,72.90
2023-04-21T18:47:05.088Z,74.00
2023-04-21T18:50:09.439Z,74.20
2023-04-21T18:53:12.216Z,74.40
2023-04-21T18:56:15.152Z,75.20
2023-04-21T18:59:18.664Z,75.90
2023-04-21T19:02:23.015Z,75.40
2023-04-21T19:05:25.959Z,76.20
2023-04-21T19:08:41.442Z,75.40
2023-04-21T19:11:46.083Z,76.50
2023-04-21T19:14:49.608Z,76.30
2023-04-21T19:17:54.890Z,76.20
2023-04-21T19:20:57.741Z,75.50
2023-04-21T19:24:00.603Z,72.70
2023-04-21T19:27:05.405Z,70.60
2023-04-21T19:30:09.574Z,70.30
2023-04-21T19:33:13.796Z,68.90
2023-04-21T19:36:16.733Z,67.60
2023-04-21T19:39:19.541Z,67.00
2023-04-21T19:42:22.317Z,67.40
2023-04-21T19:45:25.447Z,67.70
2023-04-21T19:48:29.651Z,67.70
2023-04-21T19:51:32.698Z,67.80
2023-04-21T19:54:35.536Z,67.50
2023-04-21T19:57:38.588Z,67.20
2023-04-21T20:00:41.699Z,67.90
2023-04-21T20:03:47.739Z,67.90
2023-04-21T20:06:50.781Z,66.90
2023-04-21T20:09:53.563Z,67.70
2023-04-21T20:12:56.384Z,67.90
2023-04-21T20:15:59.229Z,68.50
2023-04-21T20:19:04.586Z,68.00
2023-04-21T20:22:07.964Z,68.60
2023-04-21T20:25:12.776Z,68.10
2023-04-21T20:28:16.467Z,68.60
2023-04-21T20:31:23.507Z,68.70
2023-04-21T20:34:27.788Z,70.00
2023-04-21T20:37:33.441Z,71.70
2023-04-21T20:40:36.414Z,72.80
2023-04-21T20:43:40.306Z,73.10
2023-04-21T20:46:43.200Z,73.20
2023-04-21T20:49:47.895Z,73.90
2023-04-21T20:52:50.985Z,75.80
2023-04-21T20:55:53.777Z,76.60
2023-04-21T20:58:56.635Z,76.40
2023-04-21T21:01:59.430Z,77.40
2023-04-21T21:05:04.171Z,77.00
2023-04-21T21:08:07.956Z,76.80
2023-04-21T21:11:11.349Z,77.80
2023-04-21T21:14:14.274Z,79.60
2023-04-21T21:17:17.146Z,78.80
2023-04-21T21:20:21.334Z,78.90
2023-04-21T21:23:24.097Z,79.20
2023-04-21T21:26:27.128Z,79.70
2023-04-21T21:29:30.274Z,80.10
2023-04-21T21:32:33.086Z,80.80
2023-04-21T21:35:37.232Z,80.30
2023-04-21T21:38:40.360Z,80.70
2023-04-21T21:41:43.135Z,81.00
2023-04-21T21:44:45.927Z,80.40
2023-04-21T21:47:48.746Z,81.00
2023-04-21T21:50:52.857Z,81.60
2023-04-21T21:53:55.734Z,82.10
2023-04-21T21:56:58.836Z,81.90
2023-04-21T22:00:02.128Z,82.40
2023-04-21T22:03:05.382Z,82.70
2023-04-21T22:06:09.723Z,81.90
2023-04-21T22:09:12.549Z,81.90
2023-04-21T22:12:15.668Z,82.40
2023-04-21T22:15:19.606Z,83.10
2023-04-21T22:18:22.372Z,82.50
2023-04-21T22:21:27.383Z,83.00
2023-04-21T22:24:30.163Z,83.50
2023-04-21T22:27:33.703Z,83.90
2023-04-21T22:30:36.517Z,83.60
2023-04-21T22:33:39.357Z,83.20
2023-04-21T22:36:43.494Z,83.30
2023-04-21T22:39:46.401Z,83.80
2023-04-21T22:42:49.207Z,85.60
2023-04-21T22:45:52.015Z,86.30
2023-04-21T22:48:57.083Z,85.40
2023-04-21T22:52:01.484Z,86.40
2023-04-21T22:55:05.197Z,86.30
2023-04-21T22:58:07.987Z,86.30
2023-04-21T23:01:10.923Z,86.80
2023-04-21T23:04:13.920Z,87.20
2023-04-21T23:07:18.185Z,87.20
2023-04-21T23:10:22.196Z,88.40
2023-04-21T23:13:25.353Z,88.20
2023-04-21T23:16:28.141Z,88.10
2023-04-21T23:19:30.923Z,87.20
2023-04-21T23:22:35.182Z,87.50
2023-04-21T23:25:37.932Z,86.20
2023-04-21T23:28:40.718Z,87.70
2023-04-21T23:31:43.625Z,88.00
2023-04-21T23:34:46.500Z,88.20
2023-04-21T23:37:50.631Z,88.80
2023-04-21T23:40:53.420Z,88.50
2023-04-21T23:43:56.193Z,88.60
2023-04-21T23:46:59.082Z,88.10
2023-04-21T23:50:01.828Z,88.20
2023-04-21T23:53:05.998Z,88.00
2023-04-21T23:56:09.014Z,88.50
2023-04-21T23:59:11.815Z,87.80
